createdAt,value
2018-04-29T00:00:59.169Z,29.80
2018-04-29T00:03:27.746Z,27.07
2018-04-29T00:05:56.115Z,26.67
2018-04-29T00:08:24.530Z,28.00
2018-04-29T00:10:52.710Z,30.43
2018-04-29T00:13:21.085Z,28.90
2018-04-29T00:15:49.467Z,33.67
2018-04-29T00:18:17.833Z,30.17
2018-04-29T00:20:46.252Z,28.40
2018-04-29T00:23:14.634Z,31.37
2018-04-29T00:25:43.042Z,29.80
2018-04-29T00:28:11.451Z,32.00
2018-04-29T00:30:39.866Z,28.40
2018-04-29T00:33:08.450Z,32.93
2018-04-29T00:35:36.827Z,32.83
2018-04-29T00:38:05.239Z,31.10
2018-04-29T00:40:33.618Z,34.27
2018-04-29T00:43:02.043Z,36.60
2018-04-29T00:45:30.416Z,35.70
2018-04-29T00:47:58.791Z,32.13
2018-04-29T00:50:27.164Z,29.93
2018-04-29T00:52:55.578Z,30.50
2018-04-29T00:55:23.722Z,32.90
2018-04-29T00:57:52.138Z,27.27
2018-04-29T01:00:20.319Z,26.47
2018-04-29T01:02:48.690Z,23.80
2018-04-29T01:05:17.102Z,23.67
2018-04-29T01:07:45.516Z,24.13
2018-04-29T01:10:13.892Z,24.60
2018-04-29T01:12:42.335Z,21.07
2018-04-29T01:15:10.718Z,24.57
2018-04-29T01:17:39.301Z,25.13
2018-04-29T01:20:07.885Z,26.73
2018-04-29T01:22:36.466Z,23.73
2018-04-29T01:25:05.090Z,25.70
2018-04-29T01:27:33.682Z,28.57
2018-04-29T01:30:02.279Z,28.73
2018-04-29T01:32:30.906Z,29.13
2018-04-29T01:34:59.539Z,26.37
2018-04-29T01:37:28.128Z,27.83
2018-04-29T01:39:56.720Z,26.73
2018-04-29T01:42:25.295Z,23.63
2018-04-29T01:44:53.923Z,27.97
2018-04-29T01:47:22.503Z,24.83
2018-04-29T01:49:51.095Z,23.33
2018-04-29T01:52:19.727Z,21.60
2018-04-29T01:54:48.312Z,26.10
2018-04-29T01:57:16.893Z,27.03
2018-04-29T01:59:45.547Z,24.93
2018-04-29T02:02:14.125Z,29.67
2018-04-29T02:04:42.754Z,27.87
2018-04-29T02:07:11.334Z,28.27
2018-04-29T02:09:39.968Z,29.87
2018-04-29T02:12:08.574Z,29.37
2018-04-29T02:14:37.169Z,25.00
2018-04-29T02:17:05.763Z,27.37
2018-04-29T02:19:34.342Z,31.17
2018-04-29T02:22:02.958Z,28.17
2018-04-29T02:24:31.591Z,34.97
2018-04-29T02:27:00.178Z,21.40
2018-04-29T02:29:28.766Z,21.13
2018-04-29T02:31:57.390Z,19.67
2018-04-29T02:34:25.976Z,18.73
2018-04-29T02:36:54.601Z,21.07
2018-04-29T02:39:23.197Z,18.47
2018-04-29T02:41:51.784Z,18.90
2018-04-29T02:44:20.370Z,20.60
2018-04-29T02:46:48.951Z,19.60
2018-04-29T02:49:17.539Z,19.90
2018-04-29T02:51:46.158Z,21.17
2018-04-29T02:54:14.748Z,25.13
2018-04-29T02:56:43.389Z,24.20
2018-04-29T02:59:11.991Z,21.27
2018-04-29T03:01:40.606Z,22.97
2018-04-29T03:04:09.202Z,21.43
2018-04-29T03:06:37.786Z,26.07
2018-04-29T03:09:05.686Z,22.27
2018-04-29T03:11:34.265Z,24.13
2018-04-29T03:14:02.851Z,17.87
2018-04-29T03:16:31.434Z,20.60
2018-04-29T03:19:00.032Z,21.20
2018-04-29T03:21:28.620Z,20.07
2018-04-29T03:23:57.202Z,20.33
2018-04-29T03:26:25.799Z,23.70
2018-04-29T03:28:54.386Z,20.37
2018-04-29T03:31:22.983Z,17.37
2018-04-29T03:33:51.608Z,19.00
2018-04-29T03:36:20.202Z,18.90
2018-04-29T03:38:48.805Z,18.33
2018-04-29T03:41:17.393Z,16.23
2018-04-29T03:43:45.974Z,23.63
2018-04-29T03:46:14.598Z,19.67
2018-04-29T03:48:43.182Z,13.57
2018-04-29T03:51:11.771Z,16.57
2018-04-29T03:53:40.350Z,17.47
2018-04-29T03:56:08.930Z,20.60
2018-04-29T04:01:51.678Z,15.37
2018-04-29T04:04:19.895Z,14.87
2018-04-29T04:06:48.486Z,12.17
2018-04-29T04:09:17.082Z,12.97
2018-04-29T04:11:45.660Z,16.30
2018-04-29T04:14:14.241Z,12.17
2018-04-29T04:16:42.829Z,11.83
2018-04-29T04:19:11.418Z,18.03
2018-04-29T04:21:39.999Z,14.70
2018-04-29T04:24:08.583Z,12.17
2018-04-29T04:26:37.156Z,10.43
2018-04-29T04:29:05.738Z,10.23
2018-04-29T04:31:34.324Z,12.13
2018-04-29T04:34:02.931Z,8.27
2018-04-29T04:36:31.568Z,11.43
2018-04-29T04:39:00.159Z,19.47
2018-04-29T04:41:28.751Z,9.70
2018-04-29T04:43:57.334Z,8.27
2018-04-29T04:46:25.711Z,12.33
2018-04-29T04:48:54.288Z,14.40
2018-04-29T04:51:22.879Z,15.70
2018-04-29T04:53:51.505Z,10.50
2018-04-29T04:56:19.870Z,14.67
2018-04-29T04:58:48.447Z,11.87
2018-04-29T05:01:17.056Z,10.67
2018-04-29T05:03:45.721Z,9.30
2018-04-29T05:06:14.295Z,10.17
2018-04-29T05:08:42.899Z,14.50
2018-04-29T05:11:11.493Z,12.07
2018-04-29T05:13:39.907Z,9.37
2018-04-29T05:16:08.671Z,10.73
2018-04-29T05:18:37.247Z,9.97
2018-04-29T05:21:05.870Z,12.77
2018-04-29T05:23:34.457Z,14.60
2018-04-29T05:26:03.038Z,12.67
2018-04-29T05:28:31.395Z,11.33
2018-04-29T05:30:59.755Z,12.90
2018-04-29T05:33:28.355Z,11.67
2018-04-29T05:35:56.968Z,16.00
2018-04-29T05:38:25.563Z,11.73
2018-04-29T05:40:54.143Z,15.67
2018-04-29T05:43:22.729Z,24.33
2018-04-29T05:45:51.371Z,20.23
2018-04-29T05:48:19.987Z,16.33
2018-04-29T05:50:48.601Z,18.30
2018-04-29T05:53:17.188Z,14.37
2018-04-29T05:55:45.766Z,12.33
2018-04-29T05:58:14.375Z,16.47
2018-04-29T06:00:43.023Z,13.27
2018-04-29T06:03:11.610Z,13.53
2018-04-29T06:05:40.226Z,16.10
2018-04-29T06:08:08.812Z,15.60
2018-04-29T06:10:37.457Z,12.83
2018-04-29T06:13:06.043Z,13.20
2018-04-29T06:15:34.401Z,15.27
2018-04-29T06:18:02.758Z,13.53
2018-04-29T06:20:31.121Z,13.07
2018-04-29T06:22:59.903Z,13.37
2018-04-29T06:25:28.496Z,19.13
2018-04-29T06:27:57.174Z,16.53
2018-04-29T06:30:25.800Z,15.70
2018-04-29T06:32:54.435Z,13.83
2018-04-29T06:35:23.034Z,18.77
2018-04-29T06:37:51.646Z,12.57
2018-04-29T06:40:19.874Z,12.70
2018-04-29T06:42:48.222Z,13.47
2018-04-29T06:45:16.856Z,16.43
2018-04-29T06:47:45.452Z,12.73
2018-04-29T06:50:14.132Z,12.73
2018-04-29T06:52:43.593Z,14.20
2018-04-29T06:55:12.171Z,15.53
2018-04-29T06:57:40.793Z,16.00
2018-04-29T07:00:09.412Z,13.73
2018-04-29T07:02:38.046Z,24.77
2018-04-29T07:05:06.653Z,16.27
2018-04-29T07:07:35.240Z,14.83
2018-04-29T07:10:03.586Z,16.33
2018-04-29T07:12:32.179Z,14.80
2018-04-29T07:15:00.804Z,18.17
2018-04-29T07:17:29.408Z,15.70
2018-04-29T07:19:58.023Z,23.07
2018-04-29T07:22:26.806Z,16.83
2018-04-29T07:24:55.739Z,22.97
2018-04-29T07:27:24.320Z,15.77
2018-04-29T07:29:52.900Z,18.23
2018-04-29T07:32:21.474Z,15.23
2018-04-29T07:34:50.105Z,13.53
2018-04-29T07:37:18.686Z,21.90
2018-04-29T07:39:47.327Z,15.83
2018-04-29T07:42:15.890Z,15.97
2018-04-29T07:44:44.474Z,22.47
2018-04-29T07:47:13.057Z,16.03
2018-04-29T07:49:41.679Z,18.93
2018-04-29T07:52:10.300Z,18.00
2018-04-29T07:54:38.656Z,14.80
2018-04-29T07:57:07.792Z,16.50
2018-04-29T07:59:36.422Z,14.47
2018-04-29T08:02:05.002Z,15.17
2018-04-29T08:04:33.259Z,20.43
2018-04-29T08:07:01.854Z,16.23
2018-04-29T08:09:30.479Z,15.47
2018-04-29T08:11:59.067Z,16.90
2018-04-29T08:14:27.647Z,19.53
2018-04-29T08:16:56.297Z,17.10
2018-04-29T08:19:24.886Z,13.77
2018-04-29T08:21:53.471Z,17.57
2018-04-29T08:24:22.051Z,13.87
2018-04-29T08:26:50.719Z,20.63
2018-04-29T08:29:19.302Z,16.20
2018-04-29T08:31:47.920Z,15.70
2018-04-29T08:34:16.512Z,14.90
2018-04-29T08:36:45.121Z,16.43
2018-04-29T08:39:13.744Z,17.60
2018-04-29T08:41:41.983Z,19.57
2018-04-29T08:44:10.963Z,17.50
2018-04-29T08:46:39.543Z,13.07
2018-04-29T08:49:08.955Z,16.13
2018-04-29T08:51:37.617Z,15.73
2018-04-29T08:54:06.196Z,14.73
2018-04-29T08:56:34.845Z,12.80
2018-04-29T08:59:03.485Z,22.63
2018-04-29T09:01:32.095Z,17.93
2018-04-29T09:04:00.728Z,22.07
2018-04-29T09:06:29.342Z,13.97
2018-04-29T09:08:57.979Z,22.43
2018-04-29T09:11:26.589Z,19.47
2018-04-29T09:13:55.171Z,22.63
2018-04-29T09:16:23.749Z,11.83
2018-04-29T09:18:57.654Z,17.83
2018-04-29T09:21:26.239Z,13.13
2018-04-29T09:23:54.939Z,14.97
2018-04-29T09:26:23.653Z,14.57
2018-04-29T09:28:52.281Z,17.77
2018-04-29T09:31:20.872Z,14.87
2018-04-29T09:33:50.192Z,19.73
2018-04-29T09:36:18.775Z,19.77
2018-04-29T09:38:47.359Z,18.30
2018-04-29T09:41:15.952Z,15.67
2018-04-29T09:43:44.402Z,17.97
2018-04-29T09:46:13.096Z,11.63
2018-04-29T09:48:41.747Z,17.63
2018-04-29T09:51:10.669Z,18.17
2018-04-29T09:53:39.238Z,14.30
2018-04-29T09:56:07.822Z,12.90
2018-04-29T09:58:36.406Z,16.17
2018-04-29T10:04:04.152Z,18.10
2018-04-29T10:06:32.728Z,14.57
2018-04-29T10:09:01.323Z,12.50
2018-04-29T10:11:29.908Z,13.33
2018-04-29T10:13:58.492Z,14.93
2018-04-29T10:16:27.093Z,13.73
2018-04-29T10:18:55.766Z,16.67
2018-04-29T10:21:24.460Z,15.67
2018-04-29T10:23:53.054Z,11.03
2018-04-29T10:26:21.774Z,9.77
2018-04-29T10:28:50.361Z,15.63
2018-04-29T10:31:18.965Z,13.03
2018-04-29T10:33:47.558Z,13.67
2018-04-29T10:36:16.130Z,18.63
2018-04-29T10:38:44.423Z,14.23
2018-04-29T10:41:13.109Z,11.03
2018-04-29T10:43:43.698Z,13.93
2018-04-29T10:46:12.289Z,13.27
2018-04-29T10:48:40.947Z,17.50
2018-04-29T10:51:09.542Z,13.90
2018-04-29T10:53:38.664Z,12.30
2018-04-29T10:56:07.623Z,13.23
2018-04-29T10:58:37.207Z,12.97
2018-04-29T11:01:05.822Z,14.40
2018-04-29T11:03:34.406Z,19.13
2018-04-29T11:06:03.160Z,13.87
2018-04-29T11:08:31.791Z,14.47
2018-04-29T11:11:00.370Z,18.57
2018-04-29T11:13:28.622Z,10.40
2018-04-29T11:15:57.204Z,15.83
2018-04-29T11:18:25.563Z,14.57
2018-04-29T11:20:54.183Z,14.07
2018-04-29T11:23:22.781Z,26.57
2018-04-29T11:25:51.359Z,11.70
2018-04-29T11:28:19.984Z,12.43
2018-04-29T11:30:48.633Z,18.33
2018-04-29T11:33:17.259Z,18.87
2018-04-29T11:35:45.861Z,11.57
2018-04-29T11:38:14.437Z,19.47
2018-04-29T11:40:46.181Z,10.50
2018-04-29T11:43:14.768Z,14.97
2018-04-29T11:45:43.352Z,15.30
2018-04-29T11:48:11.944Z,17.20
2018-04-29T11:50:40.538Z,12.10
2018-04-29T11:53:09.110Z,13.87
2018-04-29T11:55:37.695Z,17.77
2018-04-29T11:58:06.275Z,14.77
2018-04-29T12:00:34.914Z,10.53
2018-04-29T12:03:03.505Z,16.77
2018-04-29T12:05:32.168Z,11.27
2018-04-29T12:08:00.912Z,13.43
2018-04-29T12:10:29.546Z,13.50
2018-04-29T12:12:58.174Z,11.87
2018-04-29T12:15:26.759Z,14.80
2018-04-29T12:17:55.375Z,12.20
2018-04-29T12:20:23.963Z,12.93
2018-04-29T12:22:52.632Z,17.87
2018-04-29T12:25:21.251Z,15.77
2018-04-29T12:27:49.844Z,18.87
2018-04-29T12:30:18.484Z,10.50
2018-04-29T12:32:47.074Z,9.40
2018-04-29T12:35:15.719Z,14.17
2018-04-29T12:37:44.334Z,11.67
2018-04-29T12:40:13.115Z,14.50
2018-04-29T12:42:41.717Z,12.20
2018-04-29T12:45:10.432Z,14.40
2018-04-29T12:47:39.070Z,15.97
2018-04-29T12:50:07.651Z,9.77
2018-04-29T12:52:36.251Z,11.83
2018-04-29T12:55:04.831Z,20.33
2018-04-29T12:57:33.442Z,14.40
2018-04-29T13:00:02.078Z,11.20
2018-04-29T13:02:30.810Z,14.10
2018-04-29T13:05:00.033Z,16.93
2018-04-29T13:07:28.646Z,19.40
2018-04-29T13:09:57.235Z,11.67
2018-04-29T13:12:25.880Z,15.10
2018-04-29T13:14:54.509Z,12.63
2018-04-29T13:17:23.206Z,14.07
2018-04-29T13:19:52.746Z,14.70
2018-04-29T13:22:21.561Z,12.50
2018-04-29T13:24:50.437Z,14.43
2018-04-29T13:27:19.054Z,12.93
2018-04-29T13:29:47.626Z,14.93
2018-04-29T13:32:16.206Z,14.13
2018-04-29T13:34:44.828Z,12.77
2018-04-29T13:37:13.605Z,13.43
2018-04-29T13:39:42.195Z,11.77
2018-04-29T13:42:10.908Z,15.23
2018-04-29T13:44:39.620Z,14.33
2018-04-29T13:47:08.240Z,17.60
2018-04-29T13:49:36.831Z,14.10
2018-04-29T13:52:04.734Z,13.27
2018-04-29T13:54:33.362Z,17.37
2018-04-29T13:57:01.984Z,13.77
2018-04-29T13:59:30.632Z,10.87
2018-04-29T14:01:59.259Z,15.17
2018-04-29T14:04:27.847Z,11.77
2018-04-29T14:06:56.443Z,14.20
2018-04-29T14:09:25.020Z,12.87
2018-04-29T14:11:53.634Z,10.77
2018-04-29T14:14:22.424Z,14.70
2018-04-29T14:16:51.014Z,27.20
2018-04-29T14:19:19.595Z,13.53
2018-04-29T14:21:48.565Z,15.83
2018-04-29T14:24:18.616Z,13.93
2018-04-29T14:26:46.882Z,17.30
2018-04-29T14:29:15.483Z,12.23
2018-04-29T14:31:44.059Z,13.57
2018-04-29T14:34:14.415Z,11.17
2018-04-29T14:36:43.417Z,12.20
2018-04-29T14:39:12.217Z,13.97
2018-04-29T14:41:40.790Z,15.53
2018-04-29T14:44:09.378Z,13.70
2018-04-29T14:46:37.976Z,17.13
2018-04-29T14:49:06.578Z,13.70
2018-04-29T14:51:35.165Z,15.77
2018-04-29T14:54:03.501Z,14.07
2018-04-29T14:56:32.086Z,16.90
2018-04-29T14:59:00.720Z,19.83
2018-04-29T15:01:29.319Z,11.30
2018-04-29T15:03:57.857Z,18.13
2018-04-29T15:06:26.432Z,14.70
2018-04-29T15:08:55.007Z,12.07
2018-04-29T15:11:23.619Z,13.03
2018-04-29T15:13:52.458Z,12.73
2018-04-29T15:16:21.098Z,10.67
2018-04-29T15:18:58.089Z,16.73
2018-04-29T15:21:26.400Z,13.90
2018-04-29T15:23:55.186Z,12.93
2018-04-29T15:26:23.445Z,13.80
2018-04-29T15:28:52.090Z,12.07
2018-04-29T15:31:20.662Z,11.83
2018-04-29T15:33:49.326Z,14.03
2018-04-29T15:36:17.923Z,11.83
2018-04-29T15:38:46.688Z,15.17
2018-04-29T15:41:15.302Z,12.17
2018-04-29T15:43:43.902Z,15.50
2018-04-29T15:46:12.485Z,15.40
2018-04-29T15:48:41.087Z,13.57
2018-04-29T15:51:09.689Z,13.67
2018-04-29T15:53:38.338Z,8.67
2018-04-29T15:56:07.390Z,14.80
2018-04-29T15:58:35.302Z,15.07
2018-04-29T16:01:03.905Z,18.27
2018-04-29T16:03:33.401Z,10.90
2018-04-29T16:06:02.180Z,13.03
2018-04-29T16:08:30.767Z,10.93
2018-04-29T16:10:59.342Z,14.03
2018-04-29T16:13:27.915Z,11.53
2018-04-29T16:15:56.276Z,14.13
2018-04-29T16:18:24.885Z,9.20
2018-04-29T16:20:53.468Z,10.10
2018-04-29T16:23:22.038Z,12.50
2018-04-29T16:25:50.692Z,12.70
2018-04-29T16:28:19.272Z,9.67
2018-04-29T16:30:47.891Z,11.57
2018-04-29T16:33:16.743Z,14.77
2018-04-29T16:35:45.345Z,11.97
2018-04-29T16:38:13.959Z,13.03
2018-04-29T16:40:42.740Z,16.40
2018-04-29T16:43:11.322Z,11.60
2018-04-29T16:45:39.909Z,11.53
2018-04-29T16:48:08.533Z,17.70
2018-04-29T16:50:37.118Z,11.30
2018-04-29T16:53:05.707Z,15.03
2018-04-29T16:55:34.411Z,12.57
2018-04-29T16:58:03.118Z,9.27
2018-04-29T17:00:31.761Z,16.40
2018-04-29T17:03:00.341Z,14.97
2018-04-29T17:05:28.925Z,13.67
2018-04-29T17:07:57.602Z,9.53
2018-04-29T17:10:26.213Z,13.07
2018-04-29T17:12:54.799Z,10.83
2018-04-29T17:15:25.680Z,9.10
2018-04-29T17:17:54.332Z,11.70
2018-04-29T17:20:23.011Z,15.67
2018-04-29T17:22:51.625Z,15.13
2018-04-29T17:25:20.277Z,7.90
2018-04-29T17:27:48.865Z,14.37
2018-04-29T17:30:17.551Z,11.13
2018-04-29T17:32:46.123Z,12.07
2018-04-29T17:35:14.743Z,6.83
2018-04-29T17:37:43.354Z,7.67
2018-04-29T17:40:12.178Z,11.30
2018-04-29T17:42:40.760Z,8.63
2018-04-29T17:45:09.051Z,10.13
2018-04-29T17:47:37.686Z,13.60
2018-04-29T17:50:06.286Z,12.70
2018-04-29T17:52:34.866Z,5.70
2018-04-29T17:55:03.472Z,6.40
2018-04-29T17:57:32.045Z,7.80
2018-04-29T18:00:00.647Z,6.43
2018-04-29T18:02:29.222Z,8.90
2018-04-29T18:04:57.799Z,9.67
2018-04-29T18:07:26.421Z,7.10
2018-04-29T18:09:54.995Z,9.73
2018-04-29T18:12:23.659Z,7.03
2018-04-29T18:14:52.103Z,7.77
2018-04-29T18:17:20.709Z,8.50
2018-04-29T18:19:49.284Z,6.63
2018-04-29T18:22:17.612Z,7.17
2018-04-29T18:24:46.258Z,7.53
2018-04-29T18:27:14.883Z,5.47
2018-04-29T18:29:43.385Z,10.27
2018-04-29T18:32:12.036Z,6.90
2018-04-29T18:34:40.611Z,6.67
2018-04-29T18:37:09.262Z,5.17
2018-04-29T18:39:37.871Z,8.13
2018-04-29T18:42:07.228Z,5.43
2018-04-29T18:44:35.817Z,7.00
2018-04-29T18:47:04.399Z,8.50
2018-04-29T18:49:34.791Z,9.63
2018-04-29T18:52:03.423Z,8.13
2018-04-29T18:54:32.006Z,12.20
2018-04-29T18:57:00.574Z,8.13
2018-04-29T18:59:29.259Z,11.10
2018-04-29T19:01:57.838Z,7.17
2018-04-29T19:04:26.435Z,10.67
2018-04-29T19:06:55.035Z,7.20
2018-04-29T19:09:23.614Z,7.23
2018-04-29T19:11:52.264Z,5.63
2018-04-29T19:14:20.867Z,8.33
2018-04-29T19:16:49.445Z,8.47
2018-04-29T19:19:18.019Z,9.33
2018-04-29T19:21:46.647Z,6.43
2018-04-29T19:24:15.311Z,7.37
2018-04-29T19:26:45.026Z,7.23
2018-04-29T19:29:13.614Z,7.93
2018-04-29T19:31:42.259Z,8.13
2018-04-29T19:34:18.382Z,6.93
2018-04-29T19:36:47.651Z,9.53
2018-04-29T19:39:16.231Z,5.53
2018-04-29T19:41:46.091Z,9.73
2018-04-29T19:44:14.408Z,10.70
2018-04-29T19:46:44.881Z,6.60
2018-04-29T19:49:13.331Z,15.67
2018-04-29T19:51:41.922Z,9.40
2018-04-29T19:54:16.332Z,10.27
2018-04-29T19:56:45.119Z,10.17
2018-04-29T19:59:13.770Z,8.50
2018-04-29T20:01:42.354Z,7.00
2018-04-29T20:04:10.933Z,8.97
2018-04-29T20:06:39.564Z,9.87
2018-04-29T20:09:08.186Z,8.30
2018-04-29T20:11:36.854Z,11.73
2018-04-29T20:14:05.555Z,6.03
2018-04-29T20:16:34.137Z,5.07
2018-04-29T20:19:02.813Z,9.87
2018-04-29T20:21:31.435Z,6.77
2018-04-29T20:24:00.010Z,10.53
2018-04-29T20:26:28.585Z,5.43
2018-04-29T20:28:57.979Z,12.50
2018-04-29T20:31:26.587Z,13.57
2018-04-29T20:33:55.172Z,7.47
2018-04-29T20:36:23.758Z,8.23
2018-04-29T20:38:52.334Z,5.63
2018-04-29T20:41:20.898Z,5.67
2018-04-29T20:43:49.511Z,6.33
2018-04-29T20:46:18.918Z,9.37
2018-04-29T20:48:47.513Z,4.97
2018-04-29T20:51:16.130Z,6.70
2018-04-29T20:53:44.706Z,8.87
2018-04-29T20:56:13.346Z,6.30
2018-04-29T20:58:41.959Z,7.20
2018-04-29T21:01:10.529Z,8.57
2018-04-29T21:03:39.110Z,10.93
2018-04-29T21:06:07.723Z,5.93
2018-04-29T21:08:36.306Z,5.37
2018-04-29T21:11:04.925Z,12.17
2018-04-29T21:13:33.539Z,7.30
2018-04-29T21:16:02.118Z,4.60
2018-04-29T21:18:30.727Z,7.37
2018-04-29T21:20:59.311Z,3.97
2018-04-29T21:23:27.898Z,7.57
2018-04-29T21:25:56.482Z,11.63
2018-04-29T21:28:25.100Z,12.50
2018-04-29T21:30:53.703Z,4.70
2018-04-29T21:33:22.283Z,7.07
2018-04-29T21:35:50.861Z,8.03
2018-04-29T21:38:19.519Z,5.73
2018-04-29T21:40:48.101Z,6.00
2018-04-29T21:43:16.692Z,7.40
2018-04-29T21:45:45.301Z,13.10
2018-04-29T21:48:13.915Z,6.23
2018-04-29T21:50:42.486Z,9.77
2018-04-29T21:53:11.050Z,8.23
2018-04-29T21:55:41.528Z,8.87
2018-04-29T21:58:10.316Z,6.40
2018-04-29T22:00:38.947Z,9.10
2018-04-29T22:03:07.514Z,5.70
2018-04-29T22:05:36.090Z,7.97
2018-04-29T22:08:04.672Z,8.63
2018-04-29T22:10:33.362Z,6.77
2018-04-29T22:13:04.043Z,4.90
2018-04-29T22:15:32.681Z,7.37
2018-04-29T22:18:01.295Z,6.07
2018-04-29T22:20:29.942Z,9.67
2018-04-29T22:22:58.560Z,10.23
2018-04-29T22:25:27.130Z,4.70
2018-04-29T22:27:55.806Z,7.63
2018-04-29T22:30:24.430Z,11.40
2018-04-29T22:32:53.011Z,4.60
2018-04-29T22:35:21.591Z,5.93
2018-04-29T22:37:50.174Z,7.93
2018-04-29T22:40:18.812Z,5.67
2018-04-29T22:42:47.379Z,4.77
2018-04-29T22:45:15.989Z,8.93
2018-04-29T22:47:44.574Z,10.20
2018-04-29T22:50:13.209Z,5.97
2018-04-29T22:52:41.785Z,8.43
2018-04-29T22:55:10.407Z,5.73
2018-04-29T22:57:38.976Z,7.83
2018-04-29T23:00:06.923Z,6.93
2018-04-29T23:02:35.503Z,8.37
2018-04-29T23:05:04.739Z,3.97
2018-04-29T23:07:33.359Z,8.00
2018-04-29T23:10:01.964Z,5.07
2018-04-29T23:12:30.530Z,9.67
2018-04-29T23:14:59.121Z,9.77
2018-04-29T23:17:27.734Z,6.13
2018-04-29T23:19:56.673Z,4.90
2018-04-29T23:22:25.244Z,5.37
2018-04-29T23:24:53.851Z,6.37
2018-04-29T23:27:22.543Z,7.23
2018-04-29T23:29:51.127Z,4.67
2018-04-29T23:32:19.712Z,5.73
2018-04-29T23:34:48.340Z,10.17
2018-04-29T23:37:16.926Z,7.37
2018-04-29T23:39:45.512Z,4.27
2018-04-29T23:42:14.139Z,4.00
2018-04-29T23:44:42.775Z,4.93
2018-04-29T23:47:11.347Z,4.13
2018-04-29T23:49:39.933Z,7.77
2018-04-29T23:52:08.560Z,5.67
2018-04-29T23:54:37.202Z,9.73
2018-04-29T23:57:05.828Z,4.90
2018-04-29T23:59:35.231Z,7.57
